< < Back
Terminal Aerodrome Forecast


Current Version              Previous Versions:   1  2  3  4  5  6  7  8  9  

Terminal Aerodrome Forecast

722
FTUS44 KMOB 010354 AAB
TAFMOB
TAF AMD
KMOB 010354Z 0104/0124 20009KT P6SM FEW050 SCT250 WS010/24035KT
     FM010900 22003KT 4SM BR FEW005 SCT250
     FM011500 20010G17KT P6SM SCT040 BKN250=

Latest METAR

367
SAUS80 KWBC 010400 RRL
MTRMOB
METAR KMOB 010356Z 21007KT 10SM FEW050 20/18 A3007 RMK AO2 SLP178
T02000178


USA.gov is the U.S. government's official web portal to all federal, state and local government web resources and services.